West Salem, Wisconsin
Current Conditions -  °F | °C
As of 12:53 PM on Friday 21 Nov 2014 (Local Time) from KLSE Reporting Station
Clear Clear  
Wind Chill: -9°   Ceiling: Unl
Heat Index: -2°   Visibility: 10mi
Dew Point: -13°   Wind: 15mph
Humidity: 43%   Direction: 170°S
Pressure: 30.24"   Gusts: NA
Location:  43.9°N, 91.08°W
Report Text: KLSE 211853Z 17013KT 10SM CLR M02/M13 A3024 RMK AO2 SLP260 T10221133
Loading
Personal Weather Stations






























Interactive Weather Map New forecast layout! Learn more

10-Day Weather Forecast

Advertisements
Track Severe Weather on mobile